Time;durP1;ratioP1;P1;durP2;ratioP2;P2;SDS_P1;SDS_P2;PMS_P1;PMS_P2;Temp;Humidity;BMP_temperature;BMP_pressure;BME280_temperature;BME280_humidity;BME280_pressure;Samples;Min_cycle;Max_cycle;Signal;HPM_P1;HPM_P2
2021/10/16 00:01:13;;;;;;;12.27;3.80;;;6.90;99.90;;;;;;5077996;28;20423;-65
2021/10/16 00:03:40;;;;;;;11.07;3.65;;;6.90;99.90;;;;;;5078896;28;20181;-65
2021/10/16 00:06:06;;;;;;;11.13;3.00;;;6.80;99.90;;;;;;5078490;28;20028;-65
2021/10/16 00:08:32;;;;;;;9.00;3.05;;;6.80;99.90;;;;;;5085865;28;20036;-65
2021/10/16 00:10:57;;;;;;;12.07;3.55;;;6.80;99.90;;;;;;5080511;28;20055;-65
2021/10/16 00:13:23;;;;;;;9.00;3.40;;;6.80;99.90;;;;;;5080521;28;20028;-65
2021/10/16 00:15:49;;;;;;;11.88;3.55;;;6.70;99.90;;;;;;5088587;28;20048;-65
2021/10/16 00:18:15;;;;;;;9.10;3.05;;;6.60;99.90;;;;;;5082292;28;20111;-65
2021/10/16 00:20:41;;;;;;;16.58;3.63;;;6.50;99.90;;;;;;5084972;28;20036;-65
2021/10/16 00:23:08;;;;;;;11.30;2.83;;;6.50;99.90;;;;;;5075254;28;20052;-65
2021/10/16 00:25:34;;;;;;;8.77;2.40;;;6.40;99.90;;;;;;5064879;28;20047;-65
2021/10/16 00:28:00;;;;;;;12.32;3.05;;;6.40;99.90;;;;;;5075242;28;20045;-65
2021/10/16 00:30:26;;;;;;;12.35;3.05;;;6.40;99.90;;;;;;5083767;28;20028;-65
2021/10/16 00:32:52;;;;;;;13.02;2.92;;;6.40;99.90;;;;;;5079292;28;20059;-65
2021/10/16 00:35:17;;;;;;;10.77;2.47;;;6.30;99.90;;;;;;5085525;28;20040;-65
2021/10/16 00:37:43;;;;;;;10.40;2.83;;;6.30;99.90;;;;;;5062019;28;20040;-65
2021/10/16 00:40:10;;;;;;;8.73;2.30;;;6.20;99.90;;;;;;5082784;28;20039;-65
2021/10/16 00:42:51;;;;;;;12.48;2.55;;;6.20;99.90;;;;;;5074754;28;20495;-65
2021/10/16 00:45:19;;;;;;;12.85;3.08;;;6.20;99.90;;;;;;5082891;28;20127;-65
2021/10/16 00:47:45;;;;;;;13.50;2.92;;;6.10;99.90;;;;;;5072021;28;20043;-65
2021/10/16 00:50:12;;;;;;;7.72;2.42;;;6.00;99.90;;;;;;5085808;28;20028;-65
2021/10/16 00:52:40;;;;;;;11.23;3.08;;;6.00;99.90;;;;;;5073239;28;20040;-65
2021/10/16 00:55:07;;;;;;;9.80;2.47;;;6.00;99.90;;;;;;5065749;28;20040;-65
2021/10/16 00:57:33;;;;;;;8.88;2.97;;;5.90;99.90;;;;;;5078184;28;20075;-65
2021/10/16 00:59:59;;;;;;;15.55;3.35;;;5.90;99.90;;;;;;5080820;28;20076;-66
2021/10/16 01:02:25;;;;;;;7.93;2.75;;;5.90;99.90;;;;;;5078576;28;20364;-65
2021/10/16 01:04:50;;;;;;;11.77;3.28;;;5.80;99.90;;;;;;5084736;28;20077;-65
2021/10/16 01:07:16;;;;;;;7.15;2.17;;;5.80;99.90;;;;;;5068193;28;20383;-65
2021/10/16 01:09:43;;;;;;;9.77;3.20;;;5.70;99.90;;;;;;5071202;28;20083;-66
2021/10/16 01:12:09;;;;;;;8.60;2.78;;;5.70;99.90;;;;;;5079373;28;20032;-66
2021/10/16 01:14:43;;;;;;;9.93;2.00;;;5.60;99.90;;;;;;5061019;28;20049;-66
2021/10/16 01:17:10;;;;;;;11.17;2.77;;;5.60;99.90;;;;;;5084460;28;20085;-66
2021/10/16 01:19:40;;;;;;;11.55;3.05;;;5.50;99.90;;;;;;5074856;28;20044;-65
2021/10/16 01:22:07;;;;;;;11.90;3.22;;;5.50;99.90;;;;;;5082804;28;20119;-65
2021/10/16 01:24:35;;;;;;;8.73;2.78;;;5.50;99.90;;;;;;5073189;28;20396;-66
2021/10/16 01:27:01;;;;;;;9.23;2.65;;;5.40;99.90;;;;;;5081164;28;20561;-65
2021/10/16 01:29:29;;;;;;;9.68;3.20;;;5.40;99.90;;;;;;5085732;28;20075;-65
2021/10/16 01:32:01;;;;;;;8.20;2.72;;;5.30;99.90;;;;;;5082504;28;20466;-65
2021/10/16 01:34:27;;;;;;;7.32;2.50;;;5.30;99.90;;;;;;5076008;28;20041;-65
2021/10/16 01:36:52;;;;;;;9.88;3.17;;;5.30;99.90;;;;;;5083178;28;20036;-65
2021/10/16 01:39:20;;;;;;;12.48;3.35;;;5.20;99.90;;;;;;5054890;28;20492;-65
2021/10/16 01:41:46;;;;;;;14.23;3.58;;;5.20;99.90;;;;;;5079620;28;20107;-65
2021/10/16 01:44:12;;;;;;;8.20;3.03;;;5.20;99.90;;;;;;5080334;28;20051;-65
2021/10/16 01:46:38;;;;;;;10.73;3.58;;;5.10;99.90;;;;;;5064186;28;20084;-65
2021/10/16 01:49:14;;;;;;;7.32;2.75;;;5.10;99.90;;;;;;5083328;28;20078;-65
2021/10/16 01:51:41;;;;;;;8.35;3.00;;;5.20;99.90;;;;;;5075320;28;20523;-65
2021/10/16 01:54:07;;;;;;;12.10;3.47;;;5.10;99.90;;;;;;5060971;28;20063;-65
2021/10/16 01:56:34;;;;;;;9.98;3.30;;;5.20;99.90;;;;;;5072383;28;20044;-65
2021/10/16 01:59:16;;;;;;;14.10;4.00;;;5.20;99.90;;;;;;5064802;28;20036;-65
2021/10/16 02:01:43;;;;;;;13.63;3.40;;;5.30;99.90;;;;;;5076469;28;20131;-65
2021/10/16 02:04:09;;;;;;;11.77;3.20;;;5.30;99.90;;;;;;5080369;28;20075;-65
2021/10/16 02:06:35;;;;;;;12.57;3.55;;;5.30;99.90;;;;;;5073237;28;20040;-66
2021/10/16 02:09:01;;;;;;;12.98;3.25;;;5.40;99.90;;;;;;5092920;28;20056;-66
2021/10/16 02:11:27;;;;;;;11.75;2.90;;;5.40;99.90;;;;;;5073165;28;20028;-65
2021/10/16 02:13:53;;;;;;;16.08;3.70;;;5.40;99.90;;;;;;5079029;28;20110;-66
2021/10/16 02:16:18;;;;;;;15.45;3.30;;;5.50;99.90;;;;;;5073116;28;20369;-66
2021/10/16 02:18:44;;;;;;;8.82;3.05;;;5.50;99.90;;;;;;5083758;28;20123;-66
2021/10/16 02:21:10;;;;;;;12.75;3.08;;;5.50;99.90;;;;;;5050564;28;20044;-65
2021/10/16 02:23:36;;;;;;;9.27;2.70;;;5.50;99.90;;;;;;5079705;28;20487;-65
2021/10/16 02:26:02;;;;;;;15.48;3.60;;;5.60;99.90;;;;;;5070202;28;20132;-65
2021/10/16 02:28:27;;;;;;;11.18;3.33;;;5.70;99.90;;;;;;5080567;28;20044;-65
2021/10/16 02:30:53;;;;;;;12.52;3.42;;;5.70;99.90;;;;;;5069860;28;20561;-65
2021/10/16 02:33:18;;;;;;;16.77;4.20;;;5.80;99.90;;;;;;5081513;28;20032;-65
2021/10/16 02:35:44;;;;;;;14.75;3.58;;;5.80;99.90;;;;;;5085614;28;20040;-65
2021/10/16 02:38:10;;;;;;;9.98;3.65;;;5.90;99.90;;;;;;5074080;28;20075;-65
2021/10/16 02:40:35;;;;;;;14.10;3.90;;;5.90;99.90;;;;;;5076185;28;20454;-65
2021/10/16 02:43:03;;;;;;;9.50;3.38;;;6.00;99.90;;;;;;5052258;28;20036;-65
2021/10/16 02:45:29;;;;;;;10.70;3.20;;;6.10;99.90;;;;;;5080571;28;20133;-65
2021/10/16 02:47:55;;;;;;;14.55;3.83;;;6.10;99.90;;;;;;5075965;28;20036;-65
2021/10/16 02:50:21;;;;;;;10.90;3.70;;;6.10;99.90;;;;;;5079733;28;20040;-65
2021/10/16 02:52:46;;;;;;;18.00;3.78;;;6.20;99.90;;;;;;5060660;28;20071;-65
2021/10/16 02:55:12;;;;;;;13.07;3.40;;;6.20;99.90;;;;;;5079715;28;20550;-65
2021/10/16 02:57:38;;;;;;;12.27;3.63;;;6.30;99.90;;;;;;5071693;28;20032;-65
2021/10/16 03:00:04;;;;;;;8.73;2.95;;;6.30;99.90;;;;;;5081269;28;20460;-65
2021/10/16 03:02:30;;;;;;;11.00;3.17;;;6.40;99.90;;;;;;5075714;28;20066;-65
2021/10/16 03:04:56;;;;;;;10.77;3.75;;;6.40;99.90;;;;;;5083349;28;20048;-65
2021/10/16 03:07:21;;;;;;;8.85;2.92;;;6.40;99.90;;;;;;5073315;28;20078;-66
2021/10/16 03:09:47;;;;;;;10.88;3.22;;;6.50;99.90;;;;;;5088290;28;20060;-66
2021/10/16 03:12:14;;;;;;;9.32;3.40;;;6.50;99.90;;;;;;5079585;28;20037;-66
2021/10/16 03:14:39;;;;;;;9.05;2.97;;;6.50;99.90;;;;;;5078138;28;20047;-66
2021/10/16 03:17:05;;;;;;;11.90;3.75;;;6.50;99.90;;;;;;5079330;28;20032;-66
2021/10/16 03:19:31;;;;;;;11.32;3.58;;;6.50;99.90;;;;;;5076615;28;20051;-66
2021/10/16 03:21:56;;;;;;;13.43;3.97;;;6.60;99.90;;;;;;5063422;28;20373;-66
2021/10/16 03:24:23;;;;;;;6.38;2.88;;;6.60;99.90;;;;;;5073620;28;20043;-66
2021/10/16 03:26:49;;;;;;;11.50;3.42;;;6.60;99.90;;;;;;5085876;28;20125;-66
2021/10/16 03:29:14;;;;;;;13.07;3.85;;;6.70;99.90;;;;;;5081931;28;20135;-66
2021/10/16 03:31:40;;;;;;;9.80;3.25;;;6.70;99.90;;;;;;5084913;28;20047;-66
2021/10/16 03:34:06;;;;;;;11.25;3.30;;;6.70;99.90;;;;;;5077371;28;20063;-66
2021/10/16 03:36:32;;;;;;;11.95;3.05;;;6.70;99.90;;;;;;5057864;28;20391;-66
2021/10/16 03:38:57;;;;;;;11.65;3.50;;;6.70;99.90;;;;;;5078150;28;20068;-66
2021/10/16 03:41:23;;;;;;;10.93;3.00;;;6.80;99.90;;;;;;5082417;28;20521;-66
2021/10/16 03:43:49;;;;;;;10.20;3.40;;;6.80;99.90;;;;;;5081320;28;20055;-65
2021/10/16 03:46:15;;;;;;;12.30;3.72;;;6.80;99.90;;;;;;5087517;28;20381;-65
2021/10/16 03:48:42;;;;;;;9.82;3.03;;;6.80;99.90;;;;;;5084374;28;20037;-65
2021/10/16 03:51:08;;;;;;;11.10;2.97;;;6.90;99.90;;;;;;5079555;28;20174;-66
2021/10/16 03:53:34;;;;;;;9.32;3.17;;;6.80;99.90;;;;;;5073040;28;20076;-65
2021/10/16 03:55:59;;;;;;;8.73;3.45;;;6.90;99.90;;;;;;5063953;28;20161;-65
2021/10/16 03:58:25;;;;;;;14.50;3.40;;;7.00;99.90;;;;;;5080698;28;20039;-65
2021/10/16 04:00:53;;;;;;;13.60;3.70;;;6.90;99.90;;;;;;5060451;28;20031;-65
2021/10/16 04:03:19;;;;;;;10.63;3.28;;;7.00;99.90;;;;;;5084431;28;20039;-65
2021/10/16 04:05:45;;;;;;;9.20;3.10;;;7.00;99.90;;;;;;5080876;28;20941;-65
2021/10/16 04:08:10;;;;;;;9.20;3.40;;;7.00;99.90;;;;;;5098711;27;20052;-65
2021/10/16 04:10:36;;;;;;;6.65;2.90;;;7.00;99.90;;;;;;5077175;28;20044;-65
2021/10/16 04:13:02;;;;;;;10.55;3.28;;;7.10;99.90;;;;;;5088213;28;20105;-65
2021/10/16 04:15:28;;;;;;;10.68;3.42;;;7.10;99.90;;;;;;5079040;28;20577;-65
2021/10/16 04:17:54;;;;;;;10.23;3.05;;;7.10;99.90;;;;;;5089809;28;20032;-65
2021/10/16 04:20:21;;;;;;;8.85;3.30;;;7.20;99.90;;;;;;5078368;28;20047;-66
2021/10/16 04:22:47;;;;;;;11.63;3.13;;;7.20;99.90;;;;;;5084670;28;20475;-65
2021/10/16 04:25:13;;;;;;;12.32;3.28;;;7.20;99.90;;;;;;5079168;28;20178;-66
2021/10/16 04:27:39;;;;;;;12.68;3.72;;;7.20;99.90;;;;;;5084819;28;20428;-66
2021/10/16 04:30:05;;;;;;;10.48;3.30;;;7.20;99.90;;;;;;5053101;28;20070;-66
2021/10/16 04:32:30;;;;;;;12.65;4.03;;;7.30;99.90;;;;;;5061147;28;20202;-66
2021/10/16 04:34:56;;;;;;;8.48;2.90;;;7.30;99.90;;;;;;5085848;28;20483;-66
2021/10/16 04:37:22;;;;;;;8.52;3.17;;;7.30;99.90;;;;;;5078049;28;20039;-66
2021/10/16 04:39:48;;;;;;;9.85;3.10;;;7.30;99.90;;;;;;5084721;28;20119;-66
2021/10/16 04:42:17;;;;;;;12.07;3.13;;;7.30;99.90;;;;;;5077982;28;20043;-66
2021/10/16 04:44:43;;;;;;;9.70;3.08;;;7.40;99.90;;;;;;5084568;28;20052;-66
2021/10/16 04:47:09;;;;;;;11.52;3.45;;;7.30;99.90;;;;;;5080876;28;20097;-66
2021/10/16 04:49:36;;;;;;;10.40;2.58;;;7.40;99.90;;;;;;5069380;28;20146;-66
2021/10/16 04:52:06;;;;;;;9.45;3.08;;;7.40;99.90;;;;;;5060937;28;20074;-66
2021/10/16 04:54:32;;;;;;;8.95;3.20;;;7.40;99.90;;;;;;5085423;28;20037;-66
2021/10/16 04:56:58;;;;;;;13.77;2.45;;;7.40;99.90;;;;;;5079608;28;20454;-66
2021/10/16 04:59:24;;;;;;;16.23;3.30;;;7.50;99.90;;;;;;5081270;28;20499;-65
2021/10/16 05:01:51;;;;;;;8.57;2.75;;;7.50;99.90;;;;;;5081618;28;20040;-66
2021/10/16 05:04:17;;;;;;;10.50;2.95;;;7.50;99.90;;;;;;5102103;27;20052;-66
2021/10/16 05:06:42;;;;;;;13.85;2.92;;;7.50;99.90;;;;;;5083466;28;20708;-66
2021/10/16 05:09:08;;;;;;;12.02;2.88;;;7.50;99.90;;;;;;5078252;28;20028;-66
2021/10/16 05:11:33;;;;;;;11.20;2.97;;;7.60;99.90;;;;;;5064206;28;20047;-66
2021/10/16 05:13:59;;;;;;;10.52;3.40;;;7.60;99.90;;;;;;5076268;28;20036;-65
2021/10/16 05:16:25;;;;;;;10.10;2.60;;;7.60;99.90;;;;;;5085344;28;20051;-65
2021/10/16 05:18:51;;;;;;;8.93;3.20;;;7.60;99.90;;;;;;5081085;28;20091;-66
2021/10/16 05:21:16;;;;;;;10.20;2.70;;;7.70;99.90;;;;;;5084936;28;20117;-66
2021/10/16 05:23:42;;;;;;;13.55;2.75;;;7.60;99.90;;;;;;5079285;28;20028;-66
2021/10/16 05:26:08;;;;;;;7.65;2.28;;;7.70;99.90;;;;;;5085324;28;20085;-66
2021/10/16 05:28:33;;;;;;;9.35;2.85;;;7.70;99.90;;;;;;5076605;28;20048;-66
2021/10/16 05:30:59;;;;;;;10.50;3.33;;;7.70;99.90;;;;;;5086988;28;20033;-66
2021/10/16 05:33:25;;;;;;;10.15;2.78;;;7.70;99.90;;;;;;5079473;28;20094;-66
2021/10/16 05:35:51;;;;;;;12.65;2.70;;;7.70;99.90;;;;;;5085694;28;20070;-66
2021/10/16 05:38:16;;;;;;;12.65;3.50;;;7.70;99.90;;;;;;5076185;28;20036;-66
2021/10/16 05:40:42;;;;;;;12.82;2.83;;;7.80;99.90;;;;;;5072156;28;20399;-66
2021/10/16 05:43:08;;;;;;;12.15;3.00;;;7.80;99.90;;;;;;5082553;28;20081;-66
2021/10/16 05:45:35;;;;;;;10.90;2.83;;;7.80;99.90;;;;;;5076941;28;20516;-66
2021/10/16 05:48:01;;;;;;;9.77;2.95;;;7.80;99.90;;;;;;5086529;28;20178;-66
2021/10/16 05:50:26;;;;;;;10.98;3.15;;;7.80;99.90;;;;;;5077819;28;20125;-66
2021/10/16 05:52:52;;;;;;;12.85;3.83;;;7.80;99.90;;;;;;5084566;28;20666;-65
2021/10/16 05:55:18;;;;;;;12.98;3.40;;;7.80;99.90;;;;;;5077293;28;20377;-66
2021/10/16 05:57:43;;;;;;;9.68;2.97;;;7.90;99.90;;;;;;5083946;28;20172;-66
2021/10/16 06:00:10;;;;;;;10.85;3.40;;;7.80;99.90;;;;;;5075480;28;20036;-66
2021/10/16 06:02:37;;;;;;;9.25;2.80;;;7.90;99.90;;;;;;5083583;28;20036;-65
2021/10/16 06:05:03;;;;;;;14.35;3.10;;;7.80;99.90;;;;;;5076765;28;20130;-65
2021/10/16 06:07:28;;;;;;;12.48;2.50;;;7.90;99.90;;;;;;5085314;28;20441;-65
2021/10/16 06:09:54;;;;;;;10.15;3.15;;;7.90;99.90;;;;;;5069169;28;20526;-65
2021/10/16 06:12:20;;;;;;;13.23;2.90;;;8.00;99.90;;;;;;5073584;28;20063;-65
2021/10/16 06:14:46;;;;;;;10.45;2.50;;;7.90;99.90;;;;;;5058594;28;20139;-65
2021/10/16 06:17:11;;;;;;;8.40;2.50;;;8.00;99.90;;;;;;5089103;28;20406;-65
2021/10/16 06:19:38;;;;;;;8.48;2.25;;;8.00;99.90;;;;;;5079233;28;20036;-65
2021/10/16 06:22:04;;;;;;;11.10;2.85;;;8.00;99.90;;;;;;5075781;28;20305;-65
2021/10/16 06:24:29;;;;;;;8.98;2.75;;;8.00;99.90;;;;;;5087689;28;20044;-65
2021/10/16 06:26:55;;;;;;;36.17;20.05;;;8.10;99.90;;;;;;5079357;28;20140;-65
2021/10/16 06:29:22;;;;;;;12.35;3.13;;;8.10;99.90;;;;;;5089915;28;20070;-65
2021/10/16 06:31:47;;;;;;;11.57;2.90;;;8.10;99.90;;;;;;5078490;28;20028;-65
2021/10/16 06:34:14;;;;;;;13.07;2.72;;;8.10;99.90;;;;;;5060715;28;20108;-65
2021/10/16 06:36:39;;;;;;;233.65;198.13;;;8.10;99.90;;;;;;5077402;28;20564;-65
2021/10/16 06:39:05;;;;;;;27.25;15.55;;;8.20;99.90;;;;;;5095648;28;20056;-65
2021/10/16 06:41:31;;;;;;;42.58;32.70;;;8.20;99.90;;;;;;5071298;28;20064;-65
2021/10/16 06:43:57;;;;;;;21.95;11.68;;;8.20;99.90;;;;;;5088713;28;20040;-65
2021/10/16 06:46:23;;;;;;;13.35;3.85;;;8.30;99.90;;;;;;5079834;28;20111;-65
2021/10/16 06:48:49;;;;;;;13.65;4.30;;;8.20;99.90;;;;;;5078781;28;20072;-65
2021/10/16 06:51:15;;;;;;;12.63;3.53;;;8.30;99.90;;;;;;5077508;28;20519;-65
2021/10/16 06:53:41;;;;;;;10.52;2.90;;;8.30;99.90;;;;;;5096188;28;20040;-65
2021/10/16 06:56:07;;;;;;;11.57;3.15;;;8.30;99.90;;;;;;5086288;28;20145;-65
2021/10/16 06:58:32;;;;;;;57.30;43.10;;;8.40;99.90;;;;;;5080783;28;20436;-65
2021/10/16 07:00:58;;;;;;;29.48;18.35;;;8.40;99.90;;;;;;5084454;28;20051;-65
2021/10/16 07:03:24;;;;;;;16.05;9.02;;;8.40;99.90;;;;;;5074788;28;20548;-65
2021/10/16 07:05:50;;;;;;;13.18;3.13;;;8.40;99.90;;;;;;5084401;28;20068;-65
2021/10/16 07:08:15;;;;;;;13.18;3.10;;;8.50;99.90;;;;;;5075973;28;20035;-65
2021/10/16 07:10:42;;;;;;;12.27;2.65;;;8.50;99.90;;;;;;5089895;28;20119;-65
2021/10/16 07:13:09;;;;;;;13.38;3.35;;;8.50;99.90;;;;;;5095057;28;20082;-65
2021/10/16 07:15:35;;;;;;;12.75;3.28;;;8.60;99.90;;;;;;5085860;28;20050;-65
2021/10/16 07:18:00;;;;;;;11.05;2.70;;;8.60;99.90;;;;;;5083760;28;20044;-65
2021/10/16 07:20:26;;;;;;;10.43;2.85;;;8.60;99.90;;;;;;5085915;28;20040;-65
2021/10/16 07:22:54;;;;;;;9.82;2.10;;;8.70;99.90;;;;;;5070083;28;20473;-65
2021/10/16 07:25:20;;;;;;;9.85;2.75;;;8.70;99.90;;;;;;5112652;27;20043;-65
2021/10/16 07:27:47;;;;;;;14.32;2.70;;;8.70;99.90;;;;;;5077653;28;20047;-65
2021/10/16 07:30:12;;;;;;;8.30;2.55;;;8.70;99.90;;;;;;5077829;28;20113;-65
2021/10/16 07:32:38;;;;;;;12.27;3.83;;;8.80;99.90;;;;;;5068136;28;20475;-66
2021/10/16 07:35:04;;;;;;;11.05;2.60;;;8.80;99.90;;;;;;5085904;28;20074;-65
2021/10/16 07:37:30;;;;;;;11.15;2.85;;;8.80;99.90;;;;;;5086905;28;20408;-65
2021/10/16 07:39:56;;;;;;;12.18;3.20;;;8.80;99.90;;;;;;5077318;28;20033;-65
2021/10/16 07:42:21;;;;;;;10.73;3.78;;;8.80;99.90;;;;;;5080730;28;20472;-65
2021/10/16 07:44:47;;;;;;;10.25;3.00;;;8.90;99.90;;;;;;5074170;28;20491;-65
2021/10/16 07:47:13;;;;;;;12.90;3.50;;;8.90;99.90;;;;;;5085672;28;20146;-65
2021/10/16 07:49:38;;;;;;;13.32;3.47;;;8.90;99.90;;;;;;5078488;28;20396;-65
2021/10/16 07:52:04;;;;;;;9.57;2.97;;;9.00;99.90;;;;;;5076600;28;20064;-65
2021/10/16 07:54:30;;;;;;;10.88;3.67;;;9.00;99.90;;;;;;5062787;28;20063;-65
2021/10/16 07:56:57;;;;;;;10.68;3.60;;;9.10;99.90;;;;;;5078476;28;20107;-65
2021/10/16 07:59:23;;;;;;;8.45;3.00;;;9.10;99.90;;;;;;5063632;28;20388;-65
2021/10/16 08:01:48;;;;;;;13.25;3.40;;;9.10;99.90;;;;;;5079777;28;20093;-65
2021/10/16 08:04:14;;;;;;;9.07;2.90;;;9.20;99.90;;;;;;5053659;28;20123;-65
2021/10/16 08:06:40;;;;;;;9.32;3.08;;;9.20;99.90;;;;;;5083739;28;20844;-65
2021/10/16 08:09:06;;;;;;;9.88;3.35;;;9.30;99.90;;;;;;5078957;28;20027;-65
2021/10/16 08:11:31;;;;;;;10.05;2.97;;;9.30;99.90;;;;;;5065589;28;20106;-65
2021/10/16 08:13:57;;;;;;;8.90;3.13;;;9.40;99.90;;;;;;5049047;28;20052;-65
2021/10/16 08:16:23;;;;;;;10.63;3.20;;;9.40;99.90;;;;;;5086426;28;20408;-66
2021/10/16 08:18:48;;;;;;;10.05;3.03;;;9.50;99.90;;;;;;5056680;28;20044;-66
2021/10/16 08:21:14;;;;;;;14.38;3.28;;;9.50;99.90;;;;;;5080601;28;20047;-65
2021/10/16 08:23:40;;;;;;;9.75;2.88;;;9.60;99.90;;;;;;5079599;28;20039;-65
2021/10/16 08:26:05;;;;;;;9.95;3.00;;;9.70;99.90;;;;;;5062665;28;20435;-65
2021/10/16 08:28:31;;;;;;;9.63;2.85;;;9.70;99.90;;;;;;5084153;28;20071;-65
2021/10/16 08:31:00;;;;;;;11.55;2.67;;;9.80;99.90;;;;;;5074514;28;20055;-65
2021/10/16 08:33:26;;;;;;;10.95;2.67;;;9.90;99.90;;;;;;5088437;28;20036;-65
2021/10/16 08:35:52;;;;;;;13.02;3.10;;;10.00;99.90;;;;;;5078163;28;20448;-65
2021/10/16 08:38:18;;;;;;;11.68;2.88;;;10.00;99.90;;;;;;5083847;28;20077;-65
2021/10/16 08:40:45;;;;;;;9.25;2.75;;;10.10;99.90;;;;;;5074395;28;20036;-65
2021/10/16 08:43:11;;;;;;;12.65;3.10;;;10.20;99.90;;;;;;5085751;28;20096;-65
2021/10/16 08:45:37;;;;;;;7.05;2.70;;;10.20;99.90;;;;;;5079261;28;20185;-65
2021/10/16 08:48:07;;;;;;;9.65;2.58;;;10.30;99.90;;;;;;5056576;28;20139;-65
2021/10/16 08:50:34;;;;;;;12.55;3.05;;;10.40;99.90;;;;;;5074829;28;20047;-65
2021/10/16 08:53:00;;;;;;;14.23;2.63;;;10.40;99.90;;;;;;5083010;28;20028;-66
2021/10/16 08:55:26;;;;;;;8.68;2.63;;;10.50;99.90;;;;;;5085682;28;20127;-66
2021/10/16 08:57:52;;;;;;;9.48;2.58;;;10.50;99.90;;;;;;5059031;28;20056;-66
2021/10/16 09:00:39;;;;;;;12.73;3.22;;;10.60;99.90;;;;;;5085235;28;20055;-66
2021/10/16 09:03:15;;;;;;;9.93;2.88;;;10.70;99.90;;;;;;5075385;28;20514;-66
2021/10/16 09:05:41;;;;;;;61.35;46.97;;;10.80;99.90;;;;;;5077976;28;20051;-66
2021/10/16 09:08:25;;;;;;;14.05;4.53;;;10.90;99.90;;;;;;5076001;28;20036;-66
2021/10/16 09:10:51;;;;;;;13.20;3.25;;;11.00;99.90;;;;;;5074556;28;20203;-66
2021/10/16 09:13:17;;;;;;;11.77;2.97;;;11.00;99.90;;;;;;5053592;28;20168;-65
2021/10/16 09:15:42;;;;;;;12.80;3.58;;;11.10;99.90;;;;;;5075120;28;20035;-66
2021/10/16 09:18:08;;;;;;;10.73;3.33;;;11.10;99.90;;;;;;5074545;28;20032;-66
2021/10/16 09:20:36;;;;;;;13.23;3.47;;;11.20;99.90;;;;;;5082931;28;20032;-66
2021/10/16 09:23:10;;;;;;;10.93;4.28;;;11.30;99.90;;;;;;5076536;28;23073;-66
2021/10/16 09:25:35;;;;;;;10.73;3.95;;;11.40;99.90;;;;;;5069393;28;20091;-66
2021/10/16 09:28:19;;;;;;;10.40;3.78;;;11.40;99.90;;;;;;5068737;28;20072;-66
2021/10/16 09:30:46;;;;;;;12.20;3.90;;;11.50;99.90;;;;;;5084143;28;20541;-66
2021/10/16 09:33:12;;;;;;;10.68;3.30;;;11.60;99.90;;;;;;5074038;28;20047;-66
2021/10/16 09:35:38;;;;;;;7.65;2.83;;;11.70;99.90;;;;;;5080106;28;20039;-66
2021/10/16 09:38:05;;;;;;;12.63;2.58;;;11.70;99.90;;;;;;5072354;28;20051;-66
2021/10/16 09:40:38;;;;;;;9.48;2.50;;;11.70;99.90;;;;;;5070995;28;20067;-66
2021/10/16 09:43:22;;;;;;;8.52;2.30;;;11.80;99.90;;;;;;5072406;28;20109;-66
2021/10/16 09:46:08;;;;;;;14.32;2.80;;;11.90;99.90;;;;;;5059529;28;20147;-66
2021/10/16 09:48:34;;;;;;;11.38;2.75;;;11.80;99.90;;;;;;5075839;28;20197;-66
2021/10/16 09:51:01;;;;;;;12.98;3.00;;;11.90;99.90;;;;;;5080918;28;20051;-66
2021/10/16 09:53:26;;;;;;;9.93;2.58;;;12.00;99.90;;;;;;5075617;28;20046;-66
2021/10/16 09:55:53;;;;;;;10.38;2.58;;;11.90;99.90;;;;;;5085835;28;20036;-66
2021/10/16 09:58:24;;;;;;;9.00;2.47;;;12.00;99.90;;;;;;5072377;28;20474;-66
2021/10/16 10:00:54;;;;;;;9.02;2.40;;;11.90;99.90;;;;;;5079464;28;20101;-66
2021/10/16 10:03:26;;;;;;;9.50;2.60;;;11.90;99.90;;;;;;5070790;28;20095;-66
2021/10/16 10:05:53;;;;;;;10.27;2.08;;;12.00;99.90;;;;;;5060993;28;20047;-66
2021/10/16 10:08:20;;;;;;;8.93;2.10;;;12.00;99.90;;;;;;5083125;28;20025;-66
2021/10/16 10:10:48;;;;;;;12.80;2.47;;;12.10;99.90;;;;;;5074433;28;20032;-66
2021/10/16 10:13:15;;;;;;;8.90;2.35;;;12.10;99.90;;;;;;5080592;28;20489;-66
2021/10/16 10:15:41;;;;;;;10.00;2.70;;;12.10;99.90;;;;;;5073989;28;20081;-66
2021/10/16 10:20:55;;;;;;;13.52;2.50;;;12.30;99.90;;;;;;5056106;28;20055;-66
2021/10/16 10:23:23;;;;;;;8.55;2.47;;;12.30;99.90;;;;;;5083068;28;20087;-66
2021/10/16 10:25:48;;;;;;;10.70;2.25;;;12.40;99.90;;;;;;5074906;28;20090;-66
2021/10/16 10:28:15;;;;;;;12.02;2.92;;;12.40;99.90;;;;;;5078363;28;20032;-66
2021/10/16 10:30:42;;;;;;;10.63;2.58;;;12.50;99.90;;;;;;5073697;28;20449;-66
2021/10/16 10:33:19;;;;;;;10.43;2.28;;;12.50;99.90;;;;;;5081671;28;20404;-66
2021/10/16 10:36:05;;;;;;;9.85;2.53;;;12.60;99.90;;;;;;5083275;28;20051;-66
2021/10/16 10:38:36;;;;;;;12.32;2.63;;;12.60;99.90;;;;;;5088945;28;20161;-66
2021/10/16 10:41:24;;;;;;;12.02;2.40;;;12.60;99.90;;;;;;5073107;28;20268;-66
2021/10/16 10:43:54;;;;;;;8.95;2.17;;;12.60;99.90;;;;;;5078734;28;20055;-66
2021/10/16 10:46:24;;;;;;;8.93;2.42;;;12.60;99.90;;;;;;5048626;28;20059;-66
2021/10/16 10:48:50;;;;;;;11.05;2.63;;;12.70;99.90;;;;;;5075442;28;20551;-66
2021/10/16 10:51:35;;;;;;;10.77;2.67;;;12.70;99.90;;;;;;5077170;28;20063;-66
2021/10/16 10:54:16;;;;;;;8.73;2.90;;;12.70;99.90;;;;;;5074263;28;20058;-66
2021/10/16 10:56:47;;;;;;;10.13;2.47;;;12.70;99.90;;;;;;5061075;28;20075;-66
2021/10/16 10:59:15;;;;;;;7.45;2.53;;;12.70;99.90;;;;;;5080675;28;20109;-66
2021/10/16 11:01:45;;;;;;;11.82;2.15;;;12.70;99.90;;;;;;5070290;28;20036;-66
2021/10/16 11:04:42;;;;;;;8.23;2.00;;;12.80;99.90;;;;;;5059019;28;20109;-66
2021/10/16 11:07:12;;;;;;;9.70;2.28;;;12.80;99.90;;;;;;5043776;28;20409;-66
2021/10/16 11:09:38;;;;;;;12.02;2.60;;;12.80;99.90;;;;;;5083031;28;20496;-66
2021/10/16 11:12:05;;;;;;;7.55;2.20;;;12.70;99.90;;;;;;5073068;28;20115;-66
2021/10/16 11:14:36;;;;;;;9.82;2.20;;;12.80;99.90;;;;;;5085518;28;20048;-66
2021/10/16 11:17:04;;;;;;;10.38;2.22;;;12.80;99.90;;;;;;5078883;28;20032;-66
2021/10/16 11:19:55;;;;;;;9.15;1.95;;;12.90;99.90;;;;;;5082944;28;20133;-66
2021/10/16 11:22:23;;;;;;;10.30;2.40;;;12.90;99.90;;;;;;5074617;28;20531;-66
2021/10/16 11:24:58;;;;;;;11.40;2.78;;;12.90;99.90;;;;;;5085078;28;20069;-66
2021/10/16 11:27:23;;;;;;;;;;;12.90;99.90;;;;;;5070634;28;20036;-66
2021/10/16 11:29:49;;;;;;;9.93;2.53;;;12.90;99.90;;;;;;5083758;28;19916;-66
2021/10/16 11:32:25;;;;;;;10.57;2.35;;;12.90;99.90;;;;;;5056113;28;20047;-66
2021/10/16 11:34:55;;;;;;;12.43;2.50;;;13.00;99.90;;;;;;5074948;28;20036;-66
2021/10/16 11:37:43;;;;;;;9.63;2.38;;;13.00;99.90;;;;;;5075621;28;20142;-66
2021/10/16 11:40:18;;;;;;;10.73;2.70;;;13.10;99.90;;;;;;5079104;28;20051;-66
2021/10/16 11:42:45;;;;;;;;;;;13.10;99.90;;;;;;5078066;28;20039;-66
2021/10/16 11:45:16;;;;;;;9.02;2.10;;;13.10;99.90;;;;;;5079159;28;19951;-66
2021/10/16 11:47:45;;;;;;;10.90;2.95;;;13.20;99.90;;;;;;5051558;28;20488;-66
2021/10/16 11:50:22;;;;;;;8.13;2.60;;;13.20;99.90;;;;;;5083351;28;20074;-66
2021/10/16 11:52:51;;;;;;;11.25;2.90;;;13.30;99.90;;;;;;5080699;28;20052;-66
2021/10/16 11:55:25;;;;;;;12.85;2.85;;;13.30;99.90;;;;;;5080184;28;20123;-66
2021/10/16 11:57:51;;;;;;;;;;;13.30;99.90;;;;;;5080277;28;20396;-66
2021/10/16 12:00:18;;;;;;;9.35;2.25;;;13.20;99.90;;;;;;5081009;28;19938;-66
2021/10/16 12:02:44;;;;;;;9.88;1.92;;;13.20;99.90;;;;;;5081884;28;20040;-67
2021/10/16 12:05:16;;;;;;;9.32;2.90;;;13.30;99.90;;;;;;5071152;28;20036;-67
2021/10/16 12:07:43;;;;;;;7.97;2.70;;;13.30;99.80;;;;;;5084480;28;20477;-67
2021/10/16 12:10:37;;;;;;;11.15;3.00;;;13.20;99.90;;;;;;5095150;27;20036;-66
2021/10/16 12:13:09;;;;;;;7.63;2.75;;;13.20;99.70;;;;;;5070551;28;20052;-66
2021/10/16 12:15:37;;;;;;;12.88;2.83;;;13.10;99.90;;;;;;5073537;28;20050;-66
2021/10/16 12:18:04;;;;;;;12.27;2.85;;;13.20;99.90;;;;;;5082074;28;20048;-66
2021/10/16 12:20:43;;;;;;;9.50;2.25;;;13.20;99.90;;;;;;5072993;28;20076;-66
2021/10/16 12:23:09;;;;;;;7.95;2.22;;;13.20;99.90;;;;;;5086501;28;20112;-66
2021/10/16 12:25:46;;;;;;;7.70;2.10;;;13.20;99.90;;;;;;5076626;28;20495;-66
2021/10/16 12:28:12;;;;;;;14.43;3.22;;;13.20;99.90;;;;;;5076319;28;20519;-66
2021/10/16 12:30:38;;;;;;;11.45;2.72;;;13.20;99.80;;;;;;5062555;28;20047;-66
2021/10/16 12:33:12;;;;;;;12.02;2.90;;;13.10;99.50;;;;;;5084321;28;20040;-66
2021/10/16 12:35:38;;;;;;;;;;;13.20;99.50;;;;;;5079203;28;20115;-66
2021/10/16 12:38:03;;;;;;;11.27;2.83;;;13.20;99.40;;;;;;5082355;28;20011;-66
2021/10/16 12:40:39;;;;;;;13.38;2.75;;;13.20;99.50;;;;;;5074303;28;20043;-66
2021/10/16 12:43:06;;;;;;;11.32;2.80;;;13.10;99.00;;;;;;5061292;28;20102;-66
2021/10/16 12:45:40;;;;;;;14.50;3.50;;;13.20;99.30;;;;;;5076637;28;20147;-66
2021/10/16 12:48:34;;;;;;;11.70;2.83;;;13.30;99.20;;;;;;5084880;28;20426;-66
2021/10/16 12:51:02;;;;;;;11.30;2.93;;;13.30;99.10;;;;;;5070909;28;20054;-66
2021/10/16 12:53:54;;;;;;;9.55;2.80;;;13.30;99.10;;;;;;5087555;28;20093;-66